Список аэропортов
Фактическая погода:

15 августа, 23:20
Температура: +17°C (+17.0*)
Ветер: перем. 1 м/с
Давление: *765 мм
Без существ. явл.
Время (МСК)Темп. СВетерВлажностьДавлениеОблачностьОсадки
21:00+22С, 2 м/с51%1019 гПамалооблачно
22:00+20С, 1 м/с63%1020 гПамалооблачно
23:00+19С, 2 м/с68%1020 гПамалооблачно
16 августа
00:00+18С, 1 м/с75%1021 гПамалооблачно
01:00+16СВ, 1 м/с81%1021 гПас прояснениями
02:00+16В, 1 м/с86%1021 гПас прояснениями
03:00+15СВ, 1 м/с88%1020 гПас прояснениями
04:00+15С, 1 м/с88%1020 гПаоблачно
05:00+15С, 1 м/с90%1020 гПас прояснениями
06:00+14Штиль 95%1020 гПас прояснениями
07:00+14Штиль 95%1020 гПаоблачно
08:00+14Штиль 94%1020 гПас прояснениями
09:00+16Ю, 1 м/с86%1019 гПас прояснениями
10:00+18ЮВ, 1 м/с75%1019 гПас прояснениями
11:00+21В, 1 м/с63%1018 гПас прояснениями
12:00+24В, 3 м/с50%1018 гПамалооблачно
13:00+25В, 3 м/с42%1017 гПамалооблачно
14:00+26В, 3 м/с39%1017 гПаясно
15:00+27В, 3 м/с38%1016 гПаясно
16:00+27В, 3 м/с36%1015 гПаясно
17:00+28В, 3 м/с36%1014 гПаясно
18:00+27В, 3 м/с36%1014 гПаясно
19:00+27В, 3 м/с37%1014 гПаясно
20:00+26В, 3 м/с39%1013 гПаясно
21:00+24В, 2 м/с47%1014 гПаясно
22:00+22В, 2 м/с56%1014 гПаясно
23:00+20В, 2 м/с60%1015 гПамалооблачно
17 августа
00:00+19В, 2 м/с65%1015 гПас прояснениями
01:00+17В, 1 м/с73%1015 гПас прояснениями
02:00+15Штиль 85%1015 гПамалооблачно
03:00+15СЗ, 1 м/с86%1015 гПаясно
04:00+14С, 1 м/с90%1015 гПаясно
05:00+13СЗ, 1 м/с93%1015 гПаясно
06:00+12СЗ, 1 м/с94%1015 гПаясно
07:00+11Штиль 98%1015 гПаясно
08:00+12ЮЗ, 1 м/с98%1015 гПаясно
09:00+14З, 1 м/с89%1014 гПаясно
10:00+17Штиль 75%1014 гПаясно
11:00+20С, 1 м/с62%1014 гПаясно
12:00+23СЗ, 1 м/с53%1014 гПаясно
13:00+25С, 1 м/с45%1013 гПаясно
14:00+27С, 1 м/с40%1013 гПаясно
15:00+28С, 1 м/с35%1013 гПаясно
16:00+28С, 1 м/с33%1012 гПаясно
17:00+29СЗ, 2 м/с31%1012 гПамалооблачно
18:00+29С, 1 м/с31%1011 гПаоблачно
19:00+28С, 1 м/с31%1011 гПаоблачно
20:00+28С, 1 м/с33%1012 гПаоблачно
21:00+25С, 1 м/с45%1012 гПамалооблачно